createdAt,value
2023-11-30T00:00:27.364Z,-0.29
2023-11-30T00:02:55.765Z,-0.28
2023-11-30T00:05:24.271Z,-0.30
2023-11-30T00:07:54.061Z,-0.32
2023-11-30T00:10:22.256Z,-0.34
2023-11-30T00:12:50.551Z,-0.37
2023-11-30T00:15:18.837Z,-0.37
2023-11-30T00:17:47.178Z,-0.37
2023-11-30T00:20:15.540Z,-0.37
2023-11-30T00:22:44.080Z,-0.36
2023-11-30T00:25:13.769Z,-0.34
2023-11-30T00:27:41.985Z,-0.34
2023-11-30T00:30:11.942Z,-0.35
2023-11-30T00:32:40.467Z,-0.35
2023-11-30T00:35:09.382Z,-0.35
2023-11-30T00:37:37.626Z,-0.34
2023-11-30T00:40:06.990Z,-0.37
2023-11-30T00:42:36.632Z,-0.37
2023-11-30T00:45:05.642Z,-0.35
2023-11-30T00:47:34.273Z,-0.38
2023-11-30T00:50:02.502Z,-0.39
2023-11-30T00:52:30.699Z,-0.41
2023-11-30T00:54:59.020Z,-0.42
2023-11-30T00:57:27.254Z,-0.43
2023-11-30T00:59:57.288Z,-0.43
2023-11-30T01:02:25.679Z,-0.45
2023-11-30T01:04:53.894Z,-0.45
2023-11-30T01:07:22.137Z,-0.45
2023-11-30T01:09:50.521Z,-0.48
2023-11-30T01:12:18.740Z,-0.48
2023-11-30T01:14:47.313Z,-0.50
2023-11-30T01:17:16.981Z,-0.52
2023-11-30T01:19:45.206Z,-0.54
2023-11-30T01:22:13.542Z,-0.56
2023-11-30T01:24:41.757Z,-0.56
2023-11-30T01:27:10.354Z,-0.59
2023-11-30T01:29:38.652Z,-0.68
2023-11-30T01:32:07.251Z,-0.71
2023-11-30T01:34:37.043Z,-0.71
2023-11-30T01:37:05.286Z,-0.80
2023-11-30T01:39:33.799Z,-0.81
2023-11-30T01:42:03.799Z,-0.83
2023-11-30T01:44:34.443Z,-0.90
2023-11-30T01:47:03.546Z,-0.94
2023-11-30T01:49:31.769Z,-0.96
2023-11-30T01:52:01.482Z,-1.09
2023-11-30T01:54:30.349Z,-1.09
2023-11-30T01:56:58.644Z,-1.13
2023-11-30T01:59:26.889Z,-1.10
2023-11-30T02:01:55.420Z,-1.10
2023-11-30T02:04:24.044Z,-1.08
2023-11-30T02:06:52.604Z,-1.13
2023-11-30T02:09:22.248Z,-1.15
2023-11-30T02:11:50.620Z,-1.14
2023-11-30T02:14:19.404Z,-1.15
2023-11-30T02:16:47.634Z,-1.16
2023-11-30T02:19:16.177Z,-1.14
2023-11-30T02:21:51.532Z,-1.12
2023-11-30T02:24:20.976Z,-1.11
2023-11-30T02:26:49.165Z,-1.13
2023-11-30T02:29:18.155Z,-1.18
2023-11-30T02:31:46.448Z,-1.21
2023-11-30T02:34:14.942Z,-1.19
2023-11-30T02:36:43.147Z,-1.20
2023-11-30T02:39:12.753Z,-1.22
2023-11-30T02:41:40.982Z,-1.29
2023-11-30T02:44:10.290Z,-1.28
2023-11-30T02:46:38.626Z,-1.30
2023-11-30T02:49:07.200Z,-1.29
2023-11-30T02:51:36.808Z,-1.32
2023-11-30T02:54:05.015Z,-1.34
2023-11-30T02:56:40.424Z,-1.37
2023-11-30T02:59:08.649Z,-1.35
2023-11-30T03:01:43.906Z,-1.34
2023-11-30T03:04:12.268Z,-1.39
2023-11-30T03:06:41.247Z,-1.40
2023-11-30T03:09:09.634Z,-1.45
2023-11-30T03:11:40.907Z,-1.48
2023-11-30T03:14:09.751Z,-1.48
2023-11-30T03:16:38.016Z,-1.54
2023-11-30T03:19:14.614Z,-1.55
2023-11-30T03:21:45.551Z,-1.59
2023-11-30T03:24:13.887Z,-1.63
2023-11-30T03:26:43.511Z,-1.61
2023-11-30T03:29:12.039Z,-1.62
2023-11-30T03:31:41.060Z,-1.70
2023-11-30T03:34:09.702Z,-1.71
2023-11-30T03:36:37.977Z,-1.68
2023-11-30T03:39:06.272Z,-1.73
2023-11-30T03:41:34.840Z,-1.72
2023-11-30T03:44:04.440Z,-1.68
2023-11-30T03:46:32.695Z,-1.70
2023-11-30T03:49:02.057Z,-1.71
2023-11-30T03:51:30.232Z,-1.72
2023-11-30T03:53:58.467Z,-1.75
2023-11-30T03:56:26.966Z,-1.76
2023-11-30T03:58:55.190Z,-1.71
2023-11-30T04:01:25.307Z,-1.66
2023-11-30T04:03:53.589Z,-1.69
2023-11-30T04:06:21.893Z,-1.76
2023-11-30T04:08:50.389Z,-1.87
2023-11-30T04:11:18.700Z,-1.89
2023-11-30T04:13:47.171Z,-1.91
2023-11-30T04:16:16.772Z,-1.93
2023-11-30T04:18:46.502Z,-1.96
2023-11-30T04:21:15.531Z,-2.00
2023-11-30T04:23:44.971Z,-2.02
2023-11-30T04:26:13.212Z,-1.98
2023-11-30T04:28:41.552Z,-1.95
2023-11-30T04:31:10.415Z,-1.94
2023-11-30T04:33:38.707Z,-1.92
2023-11-30T04:36:09.183Z,-1.84
2023-11-30T04:38:37.675Z,-1.87
2023-11-30T04:41:06.193Z,-1.93
2023-11-30T04:43:37.614Z,-1.94
2023-11-30T04:46:06.402Z,-1.95
2023-11-30T04:48:35.290Z,-1.95
2023-11-30T04:51:03.970Z,-1.93
2023-11-30T04:53:34.536Z,-1.95
2023-11-30T04:56:02.897Z,-1.96
2023-11-30T04:58:31.116Z,-1.96
2023-11-30T05:00:59.451Z,-1.98
2023-11-30T05:03:28.139Z,-1.98
2023-11-30T05:05:57.059Z,-2.02
2023-11-30T05:08:25.251Z,-2.02
2023-11-30T05:10:54.899Z,-1.99
2023-11-30T05:13:23.230Z,-1.93
2023-11-30T05:15:51.780Z,-1.91
2023-11-30T05:18:20.030Z,-1.91
2023-11-30T05:20:48.422Z,-1.87
2023-11-30T05:23:16.630Z,-1.79
2023-11-30T05:25:45.097Z,-1.76
2023-11-30T05:28:15.898Z,-1.75
2023-11-30T05:30:44.653Z,-1.74
2023-11-30T05:33:13.516Z,-1.73
2023-11-30T05:35:41.722Z,-1.74
2023-11-30T05:38:09.928Z,-1.74
2023-11-30T05:40:38.100Z,-1.78
2023-11-30T05:43:06.620Z,-1.76
2023-11-30T05:45:36.169Z,-1.75
2023-11-30T05:48:04.606Z,-1.74
2023-11-30T05:50:33.601Z,-1.73
2023-11-30T05:53:02.893Z,-1.73
2023-11-30T05:55:31.366Z,-1.75
2023-11-30T05:57:59.800Z,-1.81
2023-11-30T06:00:28.148Z,-1.89
2023-11-30T06:02:57.844Z,-1.95
2023-11-30T06:05:26.092Z,-2.03
2023-11-30T06:07:54.288Z,-2.09
2023-11-30T06:10:22.953Z,-2.15
2023-11-30T06:12:51.457Z,-2.25
2023-11-30T06:15:19.740Z,-2.30
2023-11-30T06:17:48.032Z,-2.37
2023-11-30T06:20:17.820Z,-2.42
2023-11-30T06:22:46.059Z,-2.49
2023-11-30T06:25:14.651Z,-2.52
2023-11-30T06:27:42.788Z,-2.64
2023-11-30T06:30:11.401Z,-2.71
2023-11-30T06:32:39.670Z,-2.78
2023-11-30T06:35:08.489Z,-2.85
2023-11-30T06:37:38.054Z,-2.94
2023-11-30T06:40:08.096Z,-2.99
2023-11-30T06:42:36.366Z,-3.05
2023-11-30T06:45:05.194Z,-3.10
2023-11-30T06:47:33.675Z,-3.13
2023-11-30T06:50:01.850Z,-3.20
2023-11-30T06:52:30.066Z,-3.21
2023-11-30T06:54:59.952Z,-3.23
2023-11-30T06:57:28.142Z,-3.27
2023-11-30T06:59:56.358Z,-3.33
2023-11-30T07:02:24.496Z,-3.40
2023-11-30T07:04:52.898Z,-3.45
2023-11-30T07:07:30.970Z,-3.47
2023-11-30T07:10:03.836Z,-3.45
2023-11-30T07:12:32.120Z,-3.43
2023-11-30T07:15:00.702Z,-3.45
2023-11-30T07:17:29.119Z,-3.48
2023-11-30T07:19:57.612Z,-3.54
2023-11-30T07:22:26.462Z,-3.56
2023-11-30T07:24:54.825Z,-3.55
2023-11-30T07:27:25.210Z,-3.58
2023-11-30T07:29:53.403Z,-3.58
2023-11-30T07:32:21.551Z,-3.64
2023-11-30T07:34:50.030Z,-3.64
2023-11-30T07:37:19.172Z,-3.63
2023-11-30T07:39:47.651Z,-3.63
2023-11-30T07:42:26.126Z,-3.65
2023-11-30T07:45:03.530Z,-3.64
2023-11-30T07:47:32.490Z,-3.67
2023-11-30T07:50:01.123Z,-3.65
2023-11-30T07:52:30.234Z,-3.62
2023-11-30T07:54:58.512Z,-3.57
2023-11-30T07:57:26.708Z,-3.52
2023-11-30T07:59:55.263Z,-3.46
2023-11-30T08:02:24.799Z,-3.38
2023-11-30T08:04:53.078Z,-3.33
2023-11-30T08:07:22.045Z,-3.31
2023-11-30T08:09:50.350Z,-3.24
2023-11-30T08:12:18.667Z,-3.21
2023-11-30T08:14:47.089Z,-3.15
2023-11-30T08:17:15.557Z,-3.15
2023-11-30T08:19:45.374Z,-3.14
2023-11-30T08:22:15.039Z,-3.08
2023-11-30T08:24:44.325Z,-3.00
2023-11-30T08:27:13.200Z,-2.96
2023-11-30T08:29:41.380Z,-2.94
2023-11-30T08:32:09.675Z,-2.93
2023-11-30T08:34:37.829Z,-2.91
2023-11-30T08:37:07.489Z,-2.94
2023-11-30T08:39:36.034Z,-2.96
2023-11-30T08:42:04.386Z,-2.98
2023-11-30T08:44:36.125Z,-3.05
2023-11-30T08:47:04.319Z,-3.10
2023-11-30T08:49:32.467Z,-3.02
2023-11-30T08:52:00.925Z,-2.94
2023-11-30T08:54:30.578Z,-2.89
2023-11-30T08:56:59.526Z,-2.88
2023-11-30T08:59:27.878Z,-2.89
2023-11-30T09:01:56.524Z,-2.92
2023-11-30T09:04:24.798Z,-2.87
2023-11-30T09:06:53.265Z,-2.74
2023-11-30T09:09:21.418Z,-2.67
2023-11-30T09:11:51.023Z,-2.62
2023-11-30T09:14:19.203Z,-2.57
2023-11-30T09:16:47.458Z,-2.57
2023-11-30T09:19:15.932Z,-2.50
2023-11-30T09:21:44.138Z,-2.39
2023-11-30T09:24:12.395Z,-2.30
2023-11-30T09:26:43.138Z,-2.17
2023-11-30T09:29:14.184Z,-1.94
2023-11-30T09:31:43.470Z,-1.72
2023-11-30T09:34:13.097Z,-1.51
2023-11-30T09:36:41.469Z,-1.35
2023-11-30T09:39:10.308Z,-1.22
2023-11-30T09:41:39.668Z,-1.06
2023-11-30T09:44:08.067Z,-0.94
2023-11-30T09:46:37.742Z,-0.81
2023-11-30T09:49:10.121Z,-0.59
2023-11-30T09:51:38.623Z,-0.34
2023-11-30T09:54:06.883Z,-0.07
2023-11-30T09:56:35.085Z,0.18
2023-11-30T09:59:04.108Z,0.34
2023-11-30T10:01:32.649Z,0.47
2023-11-30T10:04:12.420Z,0.58
2023-11-30T10:06:40.772Z,0.65
2023-11-30T10:09:11.132Z,0.67
2023-11-30T10:11:39.355Z,0.66
2023-11-30T10:14:08.251Z,0.69
2023-11-30T10:16:36.766Z,0.74
2023-11-30T10:19:08.355Z,0.76
2023-11-30T10:21:39.018Z,0.75
2023-11-30T10:24:09.183Z,0.75
2023-11-30T10:26:37.899Z,0.80
2023-11-30T10:29:08.041Z,0.87
2023-11-30T10:31:37.747Z,0.93
2023-11-30T10:34:12.803Z,1.00
2023-11-30T10:36:41.523Z,1.00
2023-11-30T10:39:18.169Z,0.95
2023-11-30T10:41:52.012Z,0.96
2023-11-30T10:44:27.603Z,0.97
2023-11-30T10:46:57.081Z,0.99
2023-11-30T10:49:27.412Z,0.96
2023-11-30T10:51:59.265Z,0.95
2023-11-30T10:54:33.357Z,0.88
2023-11-30T10:57:02.020Z,0.85
2023-11-30T10:59:30.837Z,0.84
2023-11-30T11:01:59.254Z,0.84
2023-11-30T11:04:29.220Z,0.88
2023-11-30T11:07:04.305Z,0.87
2023-11-30T11:09:43.551Z,0.91
2023-11-30T11:12:21.852Z,0.98
2023-11-30T11:14:50.803Z,1.01
2023-11-30T11:17:21.881Z,0.99
2023-11-30T11:19:51.434Z,1.07
2023-11-30T11:22:22.817Z,1.05
2023-11-30T11:24:51.113Z,1.04
2023-11-30T11:27:29.741Z,1.03
2023-11-30T11:29:58.687Z,1.00
2023-11-30T11:32:26.941Z,1.06
2023-11-30T11:34:56.599Z,1.09
2023-11-30T11:37:24.786Z,1.11
2023-11-30T11:39:53.514Z,1.13
2023-11-30T11:42:21.760Z,1.15
2023-11-30T11:44:51.158Z,1.17
2023-11-30T11:47:19.404Z,1.19
2023-11-30T11:49:47.730Z,1.25
2023-11-30T11:52:22.223Z,1.26
2023-11-30T11:55:00.721Z,1.27
2023-11-30T11:57:36.166Z,1.26
2023-11-30T12:00:05.294Z,1.28
2023-11-30T12:02:35.073Z,1.32
2023-11-30T12:05:11.112Z,1.39
2023-11-30T12:07:50.661Z,1.46
2023-11-30T12:10:30.405Z,1.50
2023-11-30T12:12:59.145Z,1.56
2023-11-30T12:15:27.429Z,1.61
2023-11-30T12:17:56.100Z,1.64
2023-11-30T12:20:24.481Z,1.67
2023-11-30T12:22:54.057Z,1.66
2023-11-30T12:25:22.400Z,1.71
2023-11-30T12:27:51.417Z,1.79
2023-11-30T12:30:20.106Z,1.81
2023-11-30T12:32:50.189Z,1.81
2023-11-30T12:35:18.521Z,1.82
2023-11-30T12:37:46.915Z,1.79
2023-11-30T12:40:16.646Z,1.73
2023-11-30T12:42:44.902Z,1.70
2023-11-30T12:45:13.713Z,1.64
2023-11-30T12:47:42.767Z,1.63
2023-11-30T12:50:12.131Z,1.62
2023-11-30T12:52:40.476Z,1.63
2023-11-30T12:55:09.925Z,1.63
2023-11-30T12:57:40.805Z,1.66
2023-11-30T13:00:37.269Z,1.67
2023-11-30T13:03:05.505Z,1.66
2023-11-30T13:05:33.710Z,1.63
2023-11-30T13:08:02.024Z,1.58
2023-11-30T13:10:30.260Z,1.55
2023-11-30T13:13:00.234Z,1.49
2023-11-30T13:15:28.524Z,1.44
2023-11-30T13:17:56.852Z,1.42
2023-11-30T13:20:25.857Z,1.39
2023-11-30T13:22:54.082Z,1.38
2023-11-30T13:25:23.325Z,1.38
2023-11-30T13:27:51.863Z,1.39
2023-11-30T13:30:21.668Z,1.37
2023-11-30T13:32:49.965Z,1.35
2023-11-30T13:35:18.251Z,1.32
2023-11-30T13:37:46.684Z,1.28
2023-11-30T13:40:15.987Z,1.25
2023-11-30T13:42:44.564Z,1.22
2023-11-30T13:45:12.884Z,1.21
2023-11-30T13:47:48.627Z,1.18
2023-11-30T13:50:26.215Z,1.13
2023-11-30T13:52:59.797Z,1.10
2023-11-30T13:55:28.893Z,1.06
2023-11-30T13:57:57.362Z,1.03
2023-11-30T14:00:25.680Z,1.00
2023-11-30T14:02:55.505Z,0.98
2023-11-30T14:05:23.732Z,0.95
2023-11-30T14:07:52.625Z,0.94
2023-11-30T14:10:21.228Z,0.91
2023-11-30T14:12:49.461Z,0.88
2023-11-30T14:15:17.707Z,0.89
2023-11-30T14:17:46.002Z,0.88
2023-11-30T14:20:16.367Z,0.88
2023-11-30T14:22:46.086Z,0.86
2023-11-30T14:25:15.053Z,0.86
2023-11-30T14:27:45.019Z,0.82
2023-11-30T14:30:14.597Z,0.79
2023-11-30T14:32:42.898Z,0.73
2023-11-30T14:35:13.217Z,0.68
2023-11-30T14:37:43.401Z,0.62
2023-11-30T14:40:14.565Z,0.58
2023-11-30T14:42:42.980Z,0.55
2023-11-30T14:45:13.634Z,0.51
2023-11-30T14:47:44.538Z,0.45
2023-11-30T14:50:13.208Z,0.38
2023-11-30T14:52:45.873Z,0.29
2023-11-30T14:55:14.616Z,0.24
2023-11-30T14:57:44.218Z,0.18
2023-11-30T15:00:16.158Z,0.16
2023-11-30T15:02:44.539Z,0.10
2023-11-30T15:05:15.444Z,0.05
2023-11-30T15:07:45.412Z,0.00
2023-11-30T15:10:13.715Z,-0.02
2023-11-30T15:12:41.951Z,-0.03
2023-11-30T15:15:14.855Z,-0.04
2023-11-30T15:17:45.609Z,-0.04
2023-11-30T15:20:14.697Z,-0.05
2023-11-30T15:22:43.592Z,-0.07
2023-11-30T15:25:18.933Z,-0.10
2023-11-30T15:27:48.225Z,-0.13
2023-11-30T15:30:17.141Z,-0.17
2023-11-30T15:32:45.758Z,-0.19
2023-11-30T15:35:13.922Z,-0.22
2023-11-30T15:37:47.322Z,-0.22
2023-11-30T15:40:17.890Z,-0.23
2023-11-30T15:42:46.651Z,-0.22
2023-11-30T15:45:17.933Z,-0.23
2023-11-30T15:47:46.494Z,-0.24
2023-11-30T15:50:14.697Z,-0.26
2023-11-30T15:52:43.314Z,-0.27
2023-11-30T15:55:12.620Z,-0.29
2023-11-30T15:57:42.500Z,-0.32
2023-11-30T16:00:13.276Z,-0.34
2023-11-30T16:02:42.096Z,-0.36
2023-11-30T16:05:11.053Z,-0.40
2023-11-30T16:07:39.229Z,-0.45
2023-11-30T16:10:08.989Z,-0.49
2023-11-30T16:12:37.216Z,-0.51
2023-11-30T16:15:10.364Z,-0.53
2023-11-30T16:17:38.667Z,-0.57
2023-11-30T16:20:11.468Z,-0.58
2023-11-30T16:22:40.337Z,-0.57
2023-11-30T16:25:09.505Z,-0.57
2023-11-30T16:27:38.084Z,-0.60
2023-11-30T16:30:10.081Z,-0.60
2023-11-30T16:32:38.391Z,-0.61
2023-11-30T16:35:07.330Z,-0.61
2023-11-30T16:37:35.546Z,-0.62
2023-11-30T16:40:04.270Z,-0.63
2023-11-30T16:42:32.764Z,-0.65
2023-11-30T16:45:01.295Z,-0.71
2023-11-30T16:47:30.880Z,-0.75
2023-11-30T16:49:59.106Z,-0.78
2023-11-30T16:52:27.300Z,-0.77
2023-11-30T16:54:55.759Z,-0.72
2023-11-30T16:57:24.734Z,-0.69
2023-11-30T16:59:52.897Z,-0.72
2023-11-30T17:02:21.095Z,-0.76
2023-11-30T17:04:50.982Z,-0.78
2023-11-30T17:07:20.384Z,-0.83
2023-11-30T17:09:49.808Z,-0.83
2023-11-30T17:12:18.270Z,-0.86
2023-11-30T17:14:46.449Z,-0.89
2023-11-30T17:17:14.622Z,-0.91
2023-11-30T17:19:42.832Z,-0.92
2023-11-30T17:22:13.049Z,-0.94
2023-11-30T17:24:43.088Z,-0.97
2023-11-30T17:27:11.397Z,-0.99
2023-11-30T17:29:41.072Z,-0.99
2023-11-30T17:32:09.913Z,-1.08
2023-11-30T17:34:38.405Z,-1.11
2023-11-30T17:37:07.014Z,-1.12
2023-11-30T17:39:36.688Z,-1.12
2023-11-30T17:42:05.044Z,-1.14
2023-11-30T17:44:33.232Z,-1.14
2023-11-30T17:47:01.477Z,-1.14
2023-11-30T17:49:29.972Z,-1.16
2023-11-30T17:51:58.152Z,-1.13
2023-11-30T17:54:26.345Z,-1.15
2023-11-30T17:56:55.883Z,-1.15
2023-11-30T17:59:24.159Z,-1.15
2023-11-30T18:01:52.595Z,-1.19
2023-11-30T18:04:20.976Z,-1.19
2023-11-30T18:06:49.311Z,-1.21
2023-11-30T18:09:17.504Z,-1.28
2023-11-30T18:11:45.721Z,-1.35
2023-11-30T18:14:15.323Z,-1.40
2023-11-30T18:16:43.622Z,-1.46
2023-11-30T18:19:12.890Z,-1.50
2023-11-30T18:21:41.208Z,-1.52
2023-11-30T18:24:09.456Z,-1.57
2023-11-30T18:26:37.718Z,-1.61
2023-11-30T18:29:06.018Z,-1.62
2023-11-30T18:31:36.235Z,-1.64
2023-11-30T18:34:04.616Z,-1.70
2023-11-30T18:36:32.881Z,-1.74
2023-11-30T18:39:01.174Z,-1.75
2023-11-30T18:41:29.436Z,-1.75
2023-11-30T18:43:57.896Z,-1.82
2023-11-30T18:46:26.057Z,-1.88
2023-11-30T18:48:55.757Z,-1.89
2023-11-30T18:51:29.492Z,-2.01
2023-11-30T18:53:57.855Z,-2.07
2023-11-30T18:56:28.666Z,-2.08
2023-11-30T18:58:57.195Z,-2.05
2023-11-30T19:01:26.072Z,-2.07
2023-11-30T19:03:55.843Z,-2.12
2023-11-30T19:06:25.492Z,-2.10
2023-11-30T19:08:54.183Z,-2.11
2023-11-30T19:11:23.252Z,-2.24
2023-11-30T19:13:51.778Z,-2.34
2023-11-30T19:16:21.878Z,-2.38
2023-11-30T19:18:51.237Z,-2.39
2023-11-30T19:21:21.025Z,-2.31
2023-11-30T19:23:49.373Z,-2.25
2023-11-30T19:26:17.947Z,-2.28
2023-11-30T19:28:46.158Z,-2.27
2023-11-30T19:31:15.589Z,-2.22
2023-11-30T19:33:43.902Z,-2.27
2023-11-30T19:36:12.644Z,-2.25
2023-11-30T19:38:42.526Z,-2.23
2023-11-30T19:41:10.870Z,-2.28
2023-11-30T19:43:39.000Z,-2.27
2023-11-30T19:46:07.570Z,-2.27
2023-11-30T19:48:35.896Z,-2.25
2023-11-30T19:51:05.746Z,-2.28
2023-11-30T19:53:34.174Z,-2.31
2023-11-30T19:56:03.697Z,-2.37
2023-11-30T19:58:32.144Z,-2.40
2023-11-30T20:01:00.385Z,-2.40
2023-11-30T20:03:28.709Z,-2.42
2023-11-30T20:05:57.132Z,-2.42
2023-11-30T20:08:25.311Z,-2.40
2023-11-30T20:10:53.476Z,-2.41
2023-11-30T20:13:23.175Z,-2.45
2023-11-30T20:15:51.426Z,-2.45
2023-11-30T20:18:19.814Z,-2.43
2023-11-30T20:20:48.454Z,-2.44
2023-11-30T20:23:16.717Z,-2.47
2023-11-30T20:25:44.991Z,-2.50
2023-11-30T20:28:13.248Z,-2.45
2023-11-30T20:30:42.910Z,-2.49
2023-11-30T20:33:11.208Z,-2.54
2023-11-30T20:35:39.710Z,-2.55
2023-11-30T20:38:07.921Z,-2.56
2023-11-30T20:40:36.200Z,-2.57
2023-11-30T20:43:04.888Z,-2.58
2023-11-30T20:45:33.601Z,-2.63
2023-11-30T20:48:03.517Z,-2.66
2023-11-30T20:50:31.748Z,-2.72
2023-11-30T20:53:01.312Z,-2.73
2023-11-30T20:55:29.446Z,-2.76
2023-11-30T20:57:57.953Z,-2.81
2023-11-30T21:00:26.229Z,-2.79
2023-11-30T21:02:54.876Z,-2.79
2023-11-30T21:05:24.469Z,-2.82
2023-11-30T21:07:52.673Z,-2.85
2023-11-30T21:10:20.840Z,-2.93
2023-11-30T21:12:50.191Z,-2.95
2023-11-30T21:15:18.875Z,-2.96
2023-11-30T21:17:47.131Z,-2.99
2023-11-30T21:20:15.406Z,-2.95
2023-11-30T21:22:44.997Z,-3.01
2023-11-30T21:25:14.801Z,-3.08
2023-11-30T21:27:43.056Z,-3.15
2023-11-30T21:30:12.286Z,-3.19
2023-11-30T21:32:40.431Z,-3.26
2023-11-30T21:35:09.207Z,-3.25
2023-11-30T21:37:37.373Z,-3.19
2023-11-30T21:40:08.050Z,-3.16
2023-11-30T21:42:36.751Z,-3.17
2023-11-30T21:45:05.523Z,-3.22
2023-11-30T21:47:36.260Z,-3.22
2023-11-30T21:50:15.072Z,-3.27
2023-11-30T21:52:43.433Z,-3.37
2023-11-30T21:55:13.282Z,-3.40
2023-11-30T21:57:41.968Z,-3.41
2023-11-30T22:00:13.401Z,-3.44
2023-11-30T22:02:41.683Z,-3.40
2023-11-30T22:05:11.231Z,-3.33
2023-11-30T22:07:40.743Z,-3.25
2023-11-30T22:10:10.429Z,-3.19
2023-11-30T22:12:40.006Z,-3.15
2023-11-30T22:15:09.440Z,-3.12
2023-11-30T22:17:37.736Z,-3.06
2023-11-30T22:20:06.757Z,-2.95
2023-11-30T22:22:35.560Z,-2.90
2023-11-30T22:25:04.205Z,-2.83
2023-11-30T22:27:32.465Z,-2.79
2023-11-30T22:30:02.208Z,-2.77
2023-11-30T22:32:30.448Z,-2.74
2023-11-30T22:34:58.695Z,-2.69
2023-11-30T22:37:27.365Z,-2.64
2023-11-30T22:39:55.568Z,-2.62
2023-11-30T22:42:26.229Z,-2.63
2023-11-30T22:44:54.666Z,-2.63
2023-11-30T22:47:24.276Z,-2.64
2023-11-30T22:49:53.461Z,-2.62
2023-11-30T22:52:22.777Z,-2.63
2023-11-30T22:54:51.743Z,-2.61
2023-11-30T22:57:20.061Z,-2.57
2023-11-30T22:59:48.306Z,-2.51
2023-11-30T23:02:16.683Z,-2.48
2023-11-30T23:04:46.836Z,-2.46
2023-11-30T23:07:33.545Z,-2.49
2023-11-30T23:10:01.893Z,-2.51
2023-11-30T23:12:30.216Z,-2.53
2023-11-30T23:14:58.461Z,-2.55
2023-11-30T23:17:27.020Z,-2.59
2023-11-30T23:19:57.021Z,-2.61
2023-11-30T23:22:25.230Z,-2.62
2023-11-30T23:24:53.492Z,-2.67
2023-11-30T23:27:22.059Z,-2.68
2023-11-30T23:29:50.350Z,-2.66
2023-11-30T23:32:18.882Z,-2.68
2023-11-30T23:34:47.581Z,-2.67
2023-11-30T23:37:17.251Z,-2.65
2023-11-30T23:39:45.612Z,-2.65
2023-11-30T23:42:13.969Z,-2.63
2023-11-30T23:44:42.799Z,-2.65
2023-11-30T23:47:11.278Z,-2.68
2023-11-30T23:49:39.671Z,-2.72
2023-11-30T23:52:08.162Z,-2.76
2023-11-30T23:54:37.975Z,-2.76
2023-11-30T23:57:06.602Z,-2.78
2023-11-30T23:59:35.128Z,-2.77
